createdAt,value
2023-01-26T00:00:24.083Z,54.36
2023-01-26T00:01:26.610Z,39.97
2023-01-26T00:02:29.104Z,37.21
2023-01-26T00:03:34.000Z,36.65
2023-01-26T00:04:35.980Z,36.11
2023-01-26T00:05:38.926Z,32.41
2023-01-26T00:06:41.996Z,38.00
2023-01-26T00:07:44.599Z,24.87
2023-01-26T00:08:47.142Z,21.67
2023-01-26T00:09:49.670Z,33.50
2023-01-26T00:10:52.609Z,26.72
2023-01-26T00:11:55.033Z,25.68
2023-01-26T00:12:57.629Z,22.99
2023-01-26T00:14:00.382Z,29.69
2023-01-26T00:15:02.913Z,21.64
2023-01-26T00:16:05.704Z,27.04
2023-01-26T00:17:08.379Z,24.49
2023-01-26T00:18:10.955Z,28.87
2023-01-26T00:19:13.492Z,34.00
2023-01-26T00:20:16.326Z,48.69
2023-01-26T00:21:18.886Z,46.37
2023-01-26T00:22:21.411Z,48.96
2023-01-26T00:23:23.909Z,39.63
2023-01-26T00:24:26.349Z,64.44
2023-01-26T00:25:28.889Z,46.27
2023-01-26T00:26:31.727Z,46.90
2023-01-26T00:27:34.262Z,46.40
2023-01-26T00:28:36.868Z,75.24
2023-01-26T00:29:39.390Z,52.86
2023-01-26T00:30:42.152Z,48.39
2023-01-26T00:31:44.787Z,45.47
2023-01-26T00:32:47.494Z,46.18
2023-01-26T00:33:50.045Z,50.31
2023-01-26T00:34:53.703Z,47.38
2023-01-26T00:35:56.398Z,37.31
2023-01-26T00:36:59.088Z,48.63
2023-01-26T00:38:01.638Z,44.32
2023-01-26T00:39:04.191Z,43.90
2023-01-26T00:40:07.039Z,37.99
2023-01-26T00:41:09.585Z,48.25
2023-01-26T00:42:12.119Z,40.92
2023-01-26T00:43:14.656Z,38.24
2023-01-26T00:44:17.240Z,46.40
2023-01-26T00:45:19.776Z,38.97
2023-01-26T00:46:22.570Z,39.73
2023-01-26T00:47:25.072Z,37.87
2023-01-26T00:48:27.840Z,42.11
2023-01-26T00:49:30.419Z,38.49
2023-01-26T00:50:33.167Z,29.01
2023-01-26T00:51:35.702Z,37.94
2023-01-26T00:52:38.245Z,32.19
2023-01-26T00:53:40.782Z,37.13
2023-01-26T00:54:43.374Z,38.87
2023-01-26T00:55:45.912Z,34.23
2023-01-26T00:56:48.853Z,29.86
2023-01-26T00:57:51.390Z,32.71
2023-01-26T00:58:53.927Z,41.91
2023-01-26T00:59:56.543Z,42.28
2023-01-26T01:00:59.231Z,41.16
2023-01-26T01:02:01.937Z,40.52
2023-01-26T01:03:04.481Z,47.83
2023-01-26T01:04:07.011Z,46.71
2023-01-26T01:05:09.977Z,36.79
2023-01-26T01:06:12.615Z,39.18
2023-01-26T01:07:15.176Z,38.29
2023-01-26T01:08:17.728Z,38.89
2023-01-26T01:09:20.259Z,35.56
2023-01-26T01:10:23.203Z,34.34
2023-01-26T01:11:25.738Z,38.49
2023-01-26T01:12:28.368Z,41.18
2023-01-26T01:13:30.904Z,43.66
2023-01-26T01:14:33.693Z,37.28
2023-01-26T01:15:36.244Z,39.47
2023-01-26T01:16:39.155Z,54.58
2023-01-26T01:17:41.692Z,58.04
2023-01-26T01:18:44.233Z,57.99
2023-01-26T01:19:46.761Z,50.85
2023-01-26T01:20:49.299Z,40.95
2023-01-26T01:21:51.848Z,50.14
2023-01-26T01:22:54.412Z,46.45
2023-01-26T01:23:56.967Z,54.75
2023-01-26T01:24:59.481Z,50.63
2023-01-26T01:26:02.050Z,62.38
2023-01-26T01:27:04.599Z,58.51
2023-01-26T01:28:07.148Z,68.22
2023-01-26T01:29:09.721Z,67.79
2023-01-26T01:30:13.379Z,70.12
2023-01-26T01:31:16.172Z,67.19
2023-01-26T01:32:18.956Z,73.10
2023-01-26T01:33:21.489Z,76.51
2023-01-26T01:34:24.034Z,74.83
2023-01-26T01:35:26.567Z,60.32
2023-01-26T01:36:29.415Z,53.02
2023-01-26T01:37:31.941Z,53.40
2023-01-26T01:38:34.894Z,48.79
2023-01-26T01:39:37.434Z,53.05
2023-01-26T01:40:40.091Z,42.99
2023-01-26T01:41:42.540Z,51.21
2023-01-26T01:42:45.074Z,47.57
2023-01-26T01:43:47.617Z,44.83
2023-01-26T01:44:50.241Z,39.16
2023-01-26T01:45:52.779Z,38.83
2023-01-26T01:46:55.816Z,36.66
2023-01-26T01:47:58.396Z,40.25
2023-01-26T01:49:00.830Z,44.34
2023-01-26T01:50:03.471Z,49.61
2023-01-26T01:51:05.998Z,48.31
2023-01-26T01:52:08.537Z,50.69
2023-01-26T01:53:11.126Z,43.28
2023-01-26T01:54:13.668Z,43.83
2023-01-26T01:55:16.193Z,44.93
2023-01-26T01:56:19.156Z,47.63
2023-01-26T01:57:21.684Z,48.18
2023-01-26T01:58:24.248Z,36.15
2023-01-26T01:59:26.761Z,39.52
2023-01-26T02:00:29.486Z,35.48
2023-01-26T02:01:31.951Z,37.39
2023-01-26T02:02:34.924Z,62.98
2023-01-26T02:03:37.505Z,57.95
2023-01-26T02:04:40.036Z,63.31
2023-01-26T02:05:42.617Z,65.61
2023-01-26T02:06:45.195Z,57.65
2023-01-26T02:07:47.768Z,65.87
2023-01-26T02:08:50.208Z,51.21
2023-01-26T02:09:52.757Z,55.90
2023-01-26T02:10:55.300Z,49.35
2023-01-26T02:11:57.823Z,49.94
2023-01-26T02:13:00.422Z,51.51
2023-01-26T02:14:02.933Z,33.31
2023-01-26T02:15:05.468Z,31.71
2023-01-26T02:16:08.368Z,34.25
2023-01-26T02:17:11.141Z,33.15
2023-01-26T02:18:13.727Z,32.30
2023-01-26T02:19:16.251Z,25.78
2023-01-26T02:20:19.020Z,29.47
2023-01-26T02:21:21.569Z,19.03
2023-01-26T02:22:24.105Z,25.92
2023-01-26T02:23:26.668Z,25.55
2023-01-26T02:24:29.401Z,29.40
2023-01-26T02:25:31.940Z,34.27
2023-01-26T02:26:34.679Z,28.57
2023-01-26T02:27:37.209Z,36.85
2023-01-26T02:28:39.787Z,33.58
2023-01-26T02:29:42.516Z,38.61
2023-01-26T02:30:45.408Z,49.59
2023-01-26T02:31:48.160Z,61.41
2023-01-26T02:32:50.763Z,62.62
2023-01-26T02:33:53.343Z,54.70
2023-01-26T02:34:55.919Z,73.04
2023-01-26T02:35:58.522Z,78.65
2023-01-26T02:37:01.153Z,113.17
2023-01-26T02:38:03.713Z,76.91
2023-01-26T02:39:06.248Z,83.09
2023-01-26T02:40:09.753Z,94.81
2023-01-26T02:41:12.756Z,86.55
2023-01-26T02:42:15.561Z,143.05
2023-01-26T02:43:18.098Z,153.45
2023-01-26T02:44:20.664Z,124.06
2023-01-26T02:45:23.200Z,103.40
2023-01-26T02:46:26.050Z,77.90
2023-01-26T02:47:28.559Z,75.09
2023-01-26T02:48:31.079Z,70.55
2023-01-26T02:49:33.675Z,64.22
2023-01-26T02:50:36.421Z,56.71
2023-01-26T02:51:39.004Z,51.05
2023-01-26T02:52:41.775Z,38.92
2023-01-26T02:53:44.309Z,33.84
2023-01-26T02:54:46.890Z,33.18
2023-01-26T02:55:49.446Z,40.33
2023-01-26T02:56:52.398Z,34.42
2023-01-26T02:57:54.935Z,26.83
2023-01-26T02:58:57.508Z,22.79
2023-01-26T03:00:00.127Z,24.66
2023-01-26T03:01:02.937Z,22.02
2023-01-26T03:02:05.838Z,34.72
2023-01-26T03:03:08.475Z,29.95
2023-01-26T03:04:11.015Z,37.59
2023-01-26T03:05:13.593Z,20.77
2023-01-26T03:06:16.421Z,34.29
2023-01-26T03:07:18.967Z,32.59
2023-01-26T03:08:21.502Z,40.52
2023-01-26T03:09:24.034Z,42.92
2023-01-26T03:10:26.771Z,35.09
2023-01-26T03:11:29.329Z,46.63
2023-01-26T03:12:31.852Z,48.38
2023-01-26T03:13:34.446Z,45.58
2023-01-26T03:14:36.995Z,43.70
2023-01-26T03:15:39.526Z,50.76
2023-01-26T03:16:42.176Z,68.86
2023-01-26T03:17:44.717Z,54.82
2023-01-26T03:18:47.248Z,58.65
2023-01-26T03:19:49.777Z,66.00
2023-01-26T03:20:52.678Z,83.34
2023-01-26T03:21:55.198Z,98.89
2023-01-26T03:22:57.741Z,105.80
2023-01-26T03:24:00.335Z,67.06
2023-01-26T03:25:02.857Z,106.81
2023-01-26T03:26:05.626Z,105.44
2023-01-26T03:27:08.207Z,118.61
2023-01-26T03:28:10.733Z,83.97
2023-01-26T03:29:13.278Z,152.66
2023-01-26T03:30:16.074Z,179.96
2023-01-26T03:31:19.026Z,120.41
2023-01-26T03:32:21.538Z,100.09
2023-01-26T03:33:24.073Z,115.93
2023-01-26T03:34:26.644Z,115.53
2023-01-26T03:35:29.197Z,95.61
2023-01-26T03:36:32.045Z,118.43
2023-01-26T03:37:34.582Z,126.20
2023-01-26T03:38:37.122Z,118.41
2023-01-26T03:39:39.688Z,120.10
2023-01-26T03:40:42.418Z,132.44
2023-01-26T03:41:45.090Z,132.43
2023-01-26T03:42:47.591Z,121.66
2023-01-26T03:43:50.137Z,140.80
2023-01-26T03:44:52.714Z,117.82
2023-01-26T03:45:55.262Z,113.15
2023-01-26T03:46:58.375Z,110.44
2023-01-26T03:48:01.164Z,107.22
2023-01-26T03:49:03.644Z,93.93
2023-01-26T03:50:06.690Z,97.48
2023-01-26T03:51:09.224Z,92.37
2023-01-26T03:52:11.827Z,91.51
2023-01-26T03:53:14.266Z,71.85
2023-01-26T03:54:16.803Z,85.69
2023-01-26T03:55:19.336Z,93.47
2023-01-26T03:56:22.251Z,95.39
2023-01-26T03:57:25.183Z,100.33
2023-01-26T03:58:27.713Z,92.39
2023-01-26T03:59:30.460Z,84.03
2023-01-26T04:00:33.138Z,79.51
2023-01-26T04:01:35.745Z,80.15
2023-01-26T04:02:38.329Z,71.71
2023-01-26T04:03:40.880Z,76.61
2023-01-26T04:04:43.434Z,98.57
2023-01-26T04:05:45.976Z,72.04
2023-01-26T04:06:48.852Z,81.27
2023-01-26T04:07:51.464Z,65.63
2023-01-26T04:08:54.008Z,75.58
2023-01-26T04:09:56.551Z,73.69
2023-01-26T04:10:59.505Z,83.91
2023-01-26T04:12:02.032Z,80.32
2023-01-26T04:13:04.564Z,72.55
2023-01-26T04:14:07.111Z,72.02
2023-01-26T04:15:09.854Z,78.12
2023-01-26T04:16:12.817Z,74.64
2023-01-26T04:17:15.536Z,72.43
2023-01-26T04:18:18.140Z,81.79
2023-01-26T04:19:20.709Z,75.87
2023-01-26T04:20:23.535Z,74.06
2023-01-26T04:21:26.060Z,70.95
2023-01-26T04:22:28.596Z,76.88
2023-01-26T04:23:31.146Z,85.41
2023-01-26T04:24:33.699Z,70.43
2023-01-26T04:25:36.238Z,87.38
2023-01-26T04:26:38.871Z,76.54
2023-01-26T04:27:41.405Z,74.89
2023-01-26T04:28:43.952Z,73.17
2023-01-26T04:29:46.513Z,71.27
2023-01-26T04:30:49.259Z,77.84
2023-01-26T04:31:52.095Z,62.83
2023-01-26T04:32:54.911Z,78.40
2023-01-26T04:33:57.464Z,71.41
2023-01-26T04:35:00.002Z,61.29
2023-01-26T04:36:02.802Z,67.64
2023-01-26T04:37:05.419Z,63.59
2023-01-26T04:38:07.957Z,71.35
2023-01-26T04:39:10.503Z,72.57
2023-01-26T04:40:13.483Z,60.16
2023-01-26T04:41:16.301Z,61.28
2023-01-26T04:42:18.856Z,64.75
2023-01-26T04:43:21.390Z,59.47
2023-01-26T04:44:23.943Z,63.01
2023-01-26T04:45:26.482Z,55.01
2023-01-26T04:46:29.321Z,65.39
2023-01-26T04:47:31.871Z,80.81
2023-01-26T04:48:34.416Z,52.96
2023-01-26T04:49:36.955Z,55.19
2023-01-26T04:50:39.818Z,69.23
2023-01-26T04:51:42.397Z,48.40
2023-01-26T04:52:44.952Z,55.02
2023-01-26T04:53:47.481Z,61.41
2023-01-26T04:54:50.054Z,52.67
2023-01-26T04:55:52.594Z,63.50
2023-01-26T04:56:55.751Z,63.20
2023-01-26T04:57:58.297Z,66.39
2023-01-26T04:59:00.826Z,63.79
2023-01-26T05:00:03.675Z,57.02
2023-01-26T05:01:06.300Z,61.81
2023-01-26T05:02:09.179Z,59.27
2023-01-26T05:03:11.696Z,62.04
2023-01-26T05:04:14.246Z,68.42
2023-01-26T05:05:16.781Z,67.05
2023-01-26T05:06:19.409Z,64.74
2023-01-26T05:07:22.023Z,123.18
2023-01-26T05:08:24.620Z,109.16
2023-01-26T05:09:27.144Z,78.91
2023-01-26T05:10:30.120Z,103.19
2023-01-26T05:11:32.660Z,67.95
2023-01-26T05:12:35.223Z,83.76
2023-01-26T05:13:37.678Z,115.54
2023-01-26T05:14:40.216Z,105.27
2023-01-26T05:15:42.777Z,115.13
2023-01-26T05:16:45.535Z,141.74
2023-01-26T05:17:48.094Z,120.03
2023-01-26T05:18:50.629Z,110.19
2023-01-26T05:19:53.492Z,103.83
2023-01-26T05:20:56.443Z,100.62
2023-01-26T05:21:59.016Z,79.43
2023-01-26T05:23:01.874Z,87.06
2023-01-26T05:24:04.746Z,76.59
2023-01-26T05:25:07.449Z,88.97
2023-01-26T05:26:10.413Z,140.22
2023-01-26T05:27:12.974Z,92.08
2023-01-26T05:28:15.590Z,142.90
2023-01-26T05:29:18.145Z,157.72
2023-01-26T05:30:20.794Z,143.47
2023-01-26T05:31:23.344Z,173.53
2023-01-26T05:32:26.172Z,151.36
2023-01-26T05:33:28.759Z,167.11
2023-01-26T05:34:31.273Z,168.79
2023-01-26T05:35:33.739Z,153.13
2023-01-26T05:36:36.488Z,158.71
2023-01-26T05:37:39.018Z,167.63
2023-01-26T05:38:41.591Z,153.19
2023-01-26T05:39:44.136Z,160.81
2023-01-26T05:40:47.172Z,161.43
2023-01-26T05:41:49.740Z,180.90
2023-01-26T05:42:52.241Z,175.59
2023-01-26T05:43:54.837Z,137.33
2023-01-26T05:44:57.382Z,136.81
2023-01-26T05:45:59.972Z,126.18
2023-01-26T05:47:02.563Z,135.50
2023-01-26T05:48:05.093Z,159.35
2023-01-26T05:49:07.531Z,149.46
2023-01-26T05:50:10.664Z,166.32
2023-01-26T05:51:13.648Z,163.24
2023-01-26T05:52:16.172Z,162.99
2023-01-26T05:53:18.701Z,156.75
2023-01-26T05:54:21.250Z,170.20
2023-01-26T05:55:23.801Z,182.71
2023-01-26T05:56:26.683Z,172.66
2023-01-26T05:57:29.198Z,179.06
2023-01-26T05:58:31.746Z,174.72
2023-01-26T05:59:34.286Z,180.03
2023-01-26T06:00:37.031Z,164.63
2023-01-26T06:01:39.570Z,166.43
2023-01-26T06:02:42.125Z,195.02
2023-01-26T06:03:44.703Z,172.55
2023-01-26T06:04:47.416Z,193.31
2023-01-26T06:05:49.991Z,185.81
2023-01-26T06:06:53.085Z,186.85
2023-01-26T06:07:55.600Z,175.51
2023-01-26T06:08:58.141Z,175.03
2023-01-26T06:10:00.707Z,158.57
2023-01-26T06:11:03.313Z,182.09
2023-01-26T06:12:05.853Z,170.85
2023-01-26T06:13:08.391Z,173.75
2023-01-26T06:14:10.928Z,156.97
2023-01-26T06:15:13.470Z,156.37
2023-01-26T06:16:16.797Z,151.57
2023-01-26T06:17:19.394Z,143.39
2023-01-26T06:18:21.962Z,136.51
2023-01-26T06:19:24.557Z,153.37
2023-01-26T06:20:27.417Z,149.61
2023-01-26T06:21:30.138Z,121.69
2023-01-26T06:22:32.672Z,142.47
2023-01-26T06:23:35.268Z,131.39
2023-01-26T06:24:37.809Z,122.38
2023-01-26T06:25:40.373Z,128.10
2023-01-26T06:26:43.424Z,119.39
2023-01-26T06:27:45.955Z,98.34
2023-01-26T06:28:48.502Z,112.17
2023-01-26T06:29:51.092Z,97.32
2023-01-26T06:30:53.798Z,101.11
2023-01-26T06:31:56.455Z,108.64
2023-01-26T06:33:00.234Z,94.92
2023-01-26T06:34:03.067Z,93.40
2023-01-26T06:35:05.591Z,80.24
2023-01-26T06:36:09.279Z,71.48
2023-01-26T06:37:11.875Z,68.52
2023-01-26T06:38:14.613Z,59.71
2023-01-26T06:39:17.288Z,66.53
2023-01-26T06:40:19.912Z,64.03
2023-01-26T06:41:22.648Z,56.61
2023-01-26T06:42:25.317Z,58.97
2023-01-26T06:43:27.856Z,67.74
2023-01-26T06:44:30.400Z,64.53
2023-01-26T06:45:32.968Z,67.15
2023-01-26T06:46:35.669Z,59.05
2023-01-26T06:47:38.215Z,61.60
2023-01-26T06:48:40.756Z,56.67
2023-01-26T06:49:43.287Z,62.53
2023-01-26T06:50:46.068Z,49.16
2023-01-26T06:51:48.607Z,56.08
2023-01-26T06:52:51.237Z,46.77
2023-01-26T06:53:53.711Z,45.36
2023-01-26T06:54:56.264Z,46.47
2023-01-26T06:55:58.796Z,38.79
2023-01-26T06:57:01.464Z,38.74
2023-01-26T06:58:04.045Z,37.47
2023-01-26T06:59:06.807Z,52.14
2023-01-26T07:00:10.656Z,40.94
2023-01-26T07:01:13.642Z,38.93
2023-01-26T07:02:16.388Z,44.14
2023-01-26T07:03:18.986Z,32.59
2023-01-26T07:04:21.518Z,32.18
2023-01-26T07:05:23.949Z,34.70
2023-01-26T07:06:26.687Z,28.19
2023-01-26T07:07:29.227Z,32.85
2023-01-26T07:08:31.870Z,33.73
2023-01-26T07:09:34.417Z,30.81
2023-01-26T07:10:37.351Z,25.59
2023-01-26T07:11:39.889Z,21.44
2023-01-26T07:12:42.439Z,22.15
2023-01-26T07:13:44.971Z,16.03
2023-01-26T07:14:47.518Z,12.13
2023-01-26T07:15:50.074Z,10.55
2023-01-26T07:16:52.807Z,11.79
2023-01-26T07:17:55.437Z,10.39
2023-01-26T07:18:58.115Z,12.25
2023-01-26T07:20:00.759Z,14.19
2023-01-26T07:21:03.298Z,10.40
2023-01-26T07:22:06.143Z,12.01
2023-01-26T07:23:08.626Z,9.21
2023-01-26T07:24:11.304Z,10.83
2023-01-26T07:25:14.185Z,13.41
2023-01-26T07:26:17.028Z,23.59
2023-01-26T07:27:19.625Z,18.35
2023-01-26T07:28:22.154Z,14.32
2023-01-26T07:29:24.754Z,10.01
2023-01-26T07:30:27.820Z,12.00
2023-01-26T07:31:30.360Z,13.61
2023-01-26T07:32:33.266Z,14.51
2023-01-26T07:33:35.816Z,14.30
2023-01-26T07:34:38.393Z,15.15
2023-01-26T07:35:40.928Z,14.10
2023-01-26T07:36:43.847Z,15.44
2023-01-26T07:37:46.486Z,15.01
2023-01-26T07:38:49.315Z,12.92
2023-01-26T07:39:52.007Z,9.63
2023-01-26T07:40:54.760Z,11.76
2023-01-26T07:41:57.344Z,12.27
2023-01-26T07:42:59.874Z,9.99
2023-01-26T07:44:02.526Z,10.25
2023-01-26T07:45:05.149Z,10.70
2023-01-26T07:46:08.120Z,12.76
2023-01-26T07:47:10.635Z,9.85
2023-01-26T07:48:13.171Z,12.05
2023-01-26T07:49:15.732Z,14.59
2023-01-26T07:50:18.479Z,11.49
2023-01-26T07:51:21.101Z,11.09
2023-01-26T07:52:23.625Z,14.49
2023-01-26T07:53:26.169Z,10.59
2023-01-26T07:54:28.710Z,16.47
2023-01-26T07:55:31.272Z,10.46
2023-01-26T07:56:34.268Z,17.79
2023-01-26T07:57:36.802Z,14.53
2023-01-26T07:58:39.385Z,9.29
2023-01-26T07:59:41.941Z,11.23
2023-01-26T08:00:44.906Z,9.57
2023-01-26T08:01:47.575Z,7.53
2023-01-26T08:02:50.107Z,12.59
2023-01-26T08:03:52.657Z,7.99
2023-01-26T08:04:55.189Z,15.80
2023-01-26T08:05:57.772Z,18.79
2023-01-26T08:07:00.819Z,17.06
2023-01-26T08:08:03.587Z,15.84
2023-01-26T08:09:06.118Z,15.64
2023-01-26T08:10:09.793Z,23.29
2023-01-26T08:11:12.802Z,19.32
2023-01-26T08:12:15.335Z,21.74
2023-01-26T08:13:26.633Z,12.58
2023-01-26T08:14:22.281Z,21.14
2023-01-26T08:15:24.823Z,13.91
2023-01-26T08:16:27.770Z,13.06
2023-01-26T08:17:30.381Z,14.42
2023-01-26T08:18:32.972Z,13.13
2023-01-26T08:19:35.490Z,18.03
2023-01-26T08:20:38.346Z,11.62
2023-01-26T08:21:40.919Z,12.83
2023-01-26T08:22:43.452Z,15.43
2023-01-26T08:23:46.000Z,12.39
2023-01-26T08:24:48.545Z,14.17
2023-01-26T08:25:51.116Z,11.40
2023-01-26T08:26:54.080Z,11.43
2023-01-26T08:27:56.625Z,15.21
2023-01-26T08:28:59.219Z,14.89
2023-01-26T08:30:01.791Z,13.73
2023-01-26T08:31:04.405Z,12.38
2023-01-26T08:32:07.162Z,13.69
2023-01-26T08:33:09.743Z,14.55
2023-01-26T08:34:12.416Z,16.70
2023-01-26T08:35:14.969Z,9.69
2023-01-26T08:36:17.714Z,16.16
2023-01-26T08:37:20.308Z,10.06
2023-01-26T08:38:22.879Z,16.41
2023-01-26T08:39:25.405Z,13.29
2023-01-26T08:40:28.155Z,14.15
2023-01-26T08:41:30.709Z,11.65
2023-01-26T08:42:33.271Z,14.74
2023-01-26T08:43:35.832Z,11.49
2023-01-26T08:44:38.374Z,12.83
2023-01-26T08:45:40.983Z,12.67
2023-01-26T08:46:43.950Z,14.14
2023-01-26T08:47:46.615Z,15.37
2023-01-26T08:48:49.197Z,9.81
2023-01-26T08:49:51.818Z,10.55
2023-01-26T08:50:54.477Z,10.31
2023-01-26T08:51:57.017Z,9.83
2023-01-26T08:52:59.580Z,9.67
2023-01-26T08:54:02.112Z,8.45
2023-01-26T08:55:04.703Z,10.42
2023-01-26T08:56:08.151Z,11.05
2023-01-26T08:57:11.718Z,12.06
2023-01-26T08:58:14.267Z,8.75
2023-01-26T08:59:16.810Z,10.76
2023-01-26T09:00:19.791Z,10.85
2023-01-26T09:01:22.380Z,12.17
2023-01-26T09:02:25.020Z,10.71
2023-01-26T09:03:28.086Z,11.60
2023-01-26T09:04:30.624Z,8.45
2023-01-26T09:05:33.169Z,13.02
2023-01-26T09:06:35.823Z,10.03
2023-01-26T09:07:38.360Z,11.00
2023-01-26T09:08:40.975Z,7.55
2023-01-26T09:09:43.601Z,9.42
2023-01-26T09:10:47.011Z,8.55
2023-01-26T09:11:49.558Z,10.23
2023-01-26T09:12:52.325Z,11.53
2023-01-26T09:13:55.039Z,11.29
2023-01-26T09:14:57.605Z,18.13
2023-01-26T09:16:00.135Z,13.63
2023-01-26T09:17:02.726Z,11.66
2023-01-26T09:18:05.273Z,7.93
2023-01-26T09:19:08.068Z,9.23
2023-01-26T09:20:11.392Z,7.86
2023-01-26T09:21:14.213Z,10.63
2023-01-26T09:22:16.792Z,11.09
2023-01-26T09:23:19.330Z,7.73
2023-01-26T09:24:21.980Z,15.12
2023-01-26T09:25:24.809Z,9.88
2023-01-26T09:26:28.307Z,11.54
2023-01-26T09:27:31.438Z,10.74
2023-01-26T09:28:34.915Z,9.99
2023-01-26T09:29:37.520Z,8.37
2023-01-26T09:30:40.458Z,15.69
2023-01-26T09:31:46.272Z,15.81
2023-01-26T09:32:49.427Z,14.09
2023-01-26T09:33:52.119Z,19.95
2023-01-26T09:34:54.955Z,17.18
2023-01-26T09:35:57.514Z,12.09
2023-01-26T09:37:00.594Z,14.00
2023-01-26T09:38:03.135Z,20.41
2023-01-26T09:39:05.662Z,10.05
2023-01-26T09:40:09.034Z,12.72
2023-01-26T09:41:12.045Z,11.37
2023-01-26T09:42:14.519Z,11.05
2023-01-26T09:43:17.132Z,18.14
2023-01-26T09:44:19.655Z,17.49
2023-01-26T09:45:22.232Z,18.25
2023-01-26T09:46:24.943Z,12.83
2023-01-26T09:47:27.516Z,16.96
2023-01-26T09:48:30.053Z,11.22
2023-01-26T09:49:32.600Z,14.07
2023-01-26T09:50:35.313Z,14.08
2023-01-26T09:51:37.860Z,10.86
2023-01-26T09:52:40.391Z,14.41
2023-01-26T09:53:42.934Z,12.89
2023-01-26T09:54:45.479Z,16.60
2023-01-26T09:55:48.052Z,16.54
2023-01-26T09:56:50.894Z,16.14
2023-01-26T09:57:53.432Z,13.08
2023-01-26T09:58:55.977Z,20.89
2023-01-26T09:59:58.559Z,15.27
2023-01-26T10:01:01.354Z,12.43
2023-01-26T10:02:03.896Z,14.11
2023-01-26T10:03:06.474Z,16.03
2023-01-26T10:04:09.163Z,20.65
2023-01-26T10:05:12.056Z,13.38
2023-01-26T10:06:15.376Z,25.59
2023-01-26T10:07:17.928Z,13.69
2023-01-26T10:08:20.492Z,18.25
2023-01-26T10:09:23.074Z,10.93
2023-01-26T10:10:25.902Z,16.36
2023-01-26T10:11:28.499Z,17.50
2023-01-26T10:12:31.048Z,13.55
2023-01-26T10:13:33.633Z,15.43
2023-01-26T10:14:36.265Z,20.06
2023-01-26T10:15:38.811Z,66.33
2023-01-26T10:16:41.728Z,47.87
2023-01-26T10:17:44.252Z,14.56
2023-01-26T10:18:46.813Z,14.82
2023-01-26T10:19:49.358Z,12.50
2023-01-26T10:20:52.311Z,13.29
2023-01-26T10:21:54.893Z,13.81
2023-01-26T10:22:57.561Z,15.01
2023-01-26T10:24:00.131Z,20.41
2023-01-26T10:25:02.746Z,16.03
2023-01-26T10:26:05.437Z,27.43
2023-01-26T10:27:07.995Z,15.99
2023-01-26T10:28:10.544Z,17.11
2023-01-26T10:29:13.079Z,16.10
2023-01-26T10:30:16.027Z,19.26
2023-01-26T10:31:19.217Z,18.56
2023-01-26T10:32:22.209Z,13.04
2023-01-26T10:33:25.308Z,12.54
2023-01-26T10:34:28.247Z,14.07
2023-01-26T10:35:30.793Z,12.84
2023-01-26T10:36:33.605Z,19.84
2023-01-26T10:37:36.134Z,13.97
2023-01-26T10:38:38.663Z,30.03
2023-01-26T10:39:41.124Z,14.69
2023-01-26T10:40:44.026Z,19.17
2023-01-26T10:41:46.561Z,12.92
2023-01-26T10:42:49.121Z,12.96
2023-01-26T10:43:51.688Z,15.60
2023-01-26T10:44:54.539Z,17.52
2023-01-26T10:45:57.567Z,15.30
2023-01-26T10:47:00.641Z,17.69
2023-01-26T10:48:03.220Z,16.27
2023-01-26T10:49:06.072Z,21.46
2023-01-26T10:50:08.913Z,22.75
2023-01-26T10:51:11.355Z,15.15
2023-01-26T10:52:13.944Z,15.67
2023-01-26T10:53:16.491Z,26.65
2023-01-26T10:54:19.057Z,20.50
2023-01-26T10:55:21.579Z,15.29
2023-01-26T10:56:24.369Z,13.78
2023-01-26T10:57:26.893Z,19.23
2023-01-26T10:58:29.454Z,18.09
2023-01-26T10:59:32.100Z,12.17
2023-01-26T11:00:34.770Z,16.66
2023-01-26T11:01:37.360Z,14.08
2023-01-26T11:02:40.098Z,12.11
2023-01-26T11:03:42.625Z,15.83
2023-01-26T11:04:45.160Z,15.87
2023-01-26T11:05:48.025Z,21.24
2023-01-26T11:06:50.735Z,17.37
2023-01-26T11:07:53.309Z,15.82
2023-01-26T11:08:56.067Z,28.31
2023-01-26T11:09:58.637Z,16.77
2023-01-26T11:11:02.071Z,24.18
2023-01-26T11:12:04.613Z,18.84
2023-01-26T11:13:07.165Z,14.03
2023-01-26T11:14:09.774Z,14.43
2023-01-26T11:15:12.633Z,14.31
2023-01-26T11:16:15.676Z,27.98
2023-01-26T11:17:18.280Z,19.74
2023-01-26T11:18:20.919Z,14.41
2023-01-26T11:19:23.526Z,22.47
2023-01-26T11:20:26.467Z,26.27
2023-01-26T11:21:29.125Z,19.06
2023-01-26T11:22:31.725Z,20.58
2023-01-26T11:23:34.331Z,20.97
2023-01-26T11:24:36.941Z,31.47
2023-01-26T11:25:40.982Z,19.46
2023-01-26T11:26:43.854Z,20.31
2023-01-26T11:27:46.377Z,19.41
2023-01-26T11:28:49.215Z,23.14
2023-01-26T11:29:51.757Z,18.05
2023-01-26T11:30:54.578Z,20.43
2023-01-26T11:31:57.258Z,21.69
2023-01-26T11:32:59.847Z,24.58
2023-01-26T11:34:02.320Z,27.27
2023-01-26T11:35:04.896Z,25.11
2023-01-26T11:36:07.596Z,18.99
2023-01-26T11:37:10.130Z,27.09
2023-01-26T11:38:12.713Z,24.25
2023-01-26T11:39:15.253Z,22.19
2023-01-26T11:40:18.300Z,25.57
2023-01-26T11:41:20.834Z,22.83
2023-01-26T11:42:23.376Z,23.71
2023-01-26T11:43:25.916Z,20.50
2023-01-26T11:44:28.460Z,25.82
2023-01-26T11:45:32.269Z,18.84
2023-01-26T11:46:34.953Z,23.24
2023-01-26T11:47:37.515Z,29.99
2023-01-26T11:48:40.232Z,41.75
2023-01-26T11:49:42.752Z,31.36
2023-01-26T11:50:45.706Z,23.12
2023-01-26T11:51:48.276Z,28.90
2023-01-26T11:52:50.834Z,25.97
2023-01-26T11:53:53.375Z,27.23
2023-01-26T11:54:55.927Z,23.22
2023-01-26T11:55:58.500Z,30.75
2023-01-26T11:57:01.596Z,22.28
2023-01-26T11:58:04.107Z,23.16
2023-01-26T11:59:06.563Z,39.01
2023-01-26T12:00:20.690Z,28.29
2023-01-26T12:01:14.906Z,25.42
2023-01-26T12:02:17.579Z,27.73
2023-01-26T12:03:20.489Z,23.32
2023-01-26T12:04:22.995Z,28.05
2023-01-26T12:05:25.521Z,29.14
2023-01-26T12:06:28.379Z,30.05
2023-01-26T12:07:30.966Z,33.54
2023-01-26T12:08:33.645Z,36.01
2023-01-26T12:09:36.163Z,26.57
2023-01-26T12:10:39.030Z,30.07
2023-01-26T12:11:41.740Z,37.54
2023-01-26T12:12:44.620Z,38.50
2023-01-26T12:13:47.137Z,38.59
2023-01-26T12:14:49.771Z,34.89
2023-01-26T12:15:52.389Z,33.83
2023-01-26T12:16:58.071Z,28.00
2023-01-26T12:17:59.932Z,33.73
2023-01-26T12:19:10.771Z,28.55
2023-01-26T12:20:07.406Z,27.98
2023-01-26T12:21:10.004Z,36.00
2023-01-26T12:22:12.630Z,50.00
2023-01-26T12:23:15.153Z,30.78
2023-01-26T12:24:43.545Z,35.25
2023-01-26T12:25:22.102Z,27.96
2023-01-26T12:26:24.954Z,33.38
2023-01-26T12:27:27.492Z,39.95
2023-01-26T12:28:30.049Z,28.09
2023-01-26T12:29:32.643Z,29.06
2023-01-26T12:30:35.807Z,39.32
2023-01-26T12:31:38.664Z,28.12
2023-01-26T12:32:41.458Z,32.88
2023-01-26T12:33:44.012Z,31.41
2023-01-26T12:34:46.608Z,34.24
2023-01-26T12:35:49.147Z,29.35
2023-01-26T12:36:51.925Z,35.46
2023-01-26T12:37:54.523Z,30.36
2023-01-26T12:38:57.051Z,33.21
2023-01-26T12:39:59.647Z,29.18
2023-01-26T12:41:03.048Z,24.27
2023-01-26T12:42:05.615Z,27.11
2023-01-26T12:43:08.170Z,29.11
2023-01-26T12:44:10.740Z,29.27
2023-01-26T12:45:13.601Z,25.15
2023-01-26T12:46:16.946Z,36.68
2023-01-26T12:47:19.495Z,41.85
2023-01-26T12:48:22.042Z,34.17
2023-01-26T12:49:24.669Z,34.04
2023-01-26T12:50:27.568Z,40.16
2023-01-26T12:51:30.197Z,41.13
2023-01-26T12:52:32.731Z,37.47
2023-01-26T12:53:37.217Z,34.65
2023-01-26T12:54:39.661Z,40.63
2023-01-26T12:55:42.248Z,38.23
2023-01-26T12:56:45.102Z,42.79
2023-01-26T12:57:47.743Z,36.01
2023-01-26T12:58:50.284Z,36.52
2023-01-26T12:59:52.864Z,28.58
2023-01-26T13:00:56.069Z,28.69
2023-01-26T13:02:00.056Z,34.06
2023-01-26T13:03:02.583Z,30.13
2023-01-26T13:04:05.116Z,26.11
2023-01-26T13:05:07.736Z,28.68
2023-01-26T13:06:10.378Z,36.97
2023-01-26T13:07:12.914Z,37.16
2023-01-26T13:08:16.601Z,27.03
2023-01-26T13:09:19.132Z,30.16
2023-01-26T13:10:21.981Z,32.50
2023-01-26T13:11:24.560Z,26.49
2023-01-26T13:12:27.109Z,30.14
2023-01-26T13:13:29.660Z,24.89
2023-01-26T13:14:32.210Z,30.15
2023-01-26T13:15:34.767Z,39.74
2023-01-26T13:16:37.889Z,28.87
2023-01-26T13:17:40.665Z,33.69
2023-01-26T13:18:43.218Z,38.82
2023-01-26T13:19:45.751Z,31.25
2023-01-26T13:20:48.925Z,35.23
2023-01-26T13:21:51.500Z,33.46
2023-01-26T13:22:54.041Z,32.48
2023-01-26T13:23:56.624Z,30.04
2023-01-26T13:24:59.313Z,37.34